createdAt,value
2023-03-22T00:00:35.411Z,11.49
2023-03-22T00:03:06.304Z,11.50
2023-03-22T00:05:34.895Z,11.49
2023-03-22T00:08:05.700Z,11.47
2023-03-22T00:10:35.765Z,11.46
2023-03-22T00:13:04.766Z,11.45
2023-03-22T00:15:34.017Z,11.43
2023-03-22T00:18:05.759Z,11.41
2023-03-22T00:20:37.569Z,11.36
2023-03-22T00:23:06.551Z,11.34
2023-03-22T00:25:35.492Z,11.32
2023-03-22T00:28:04.238Z,11.29
2023-03-22T00:30:32.939Z,11.25
2023-03-22T00:33:01.895Z,11.23
2023-03-22T00:35:32.098Z,11.18
2023-03-22T00:38:06.194Z,11.17
2023-03-22T00:40:35.388Z,11.14
2023-03-22T00:43:03.968Z,11.09
2023-03-22T00:45:32.921Z,11.02
2023-03-22T00:48:01.782Z,10.99
2023-03-22T00:50:32.127Z,10.91
2023-03-22T00:53:00.965Z,10.77
2023-03-22T00:55:30.015Z,10.77
2023-03-22T00:57:58.995Z,10.72
2023-03-22T01:00:28.007Z,10.75
2023-03-22T01:02:59.684Z,10.68
2023-03-22T01:05:28.528Z,10.69
2023-03-22T01:08:02.557Z,10.65
2023-03-22T01:10:31.650Z,10.62
2023-03-22T01:13:00.276Z,10.57
2023-03-22T01:15:28.984Z,10.55
2023-03-22T01:17:57.976Z,10.48
2023-03-22T01:20:26.925Z,10.47
2023-03-22T01:22:56.972Z,10.41
2023-03-22T01:25:26.548Z,10.37
2023-03-22T01:27:55.422Z,10.34
2023-03-22T01:30:24.026Z,10.31
2023-03-22T01:32:52.846Z,10.29
2023-03-22T01:35:21.465Z,10.29
2023-03-22T01:37:53.061Z,10.31
2023-03-22T01:40:23.916Z,10.33
2023-03-22T01:42:54.523Z,10.33
2023-03-22T01:45:43.129Z,10.34
2023-03-22T01:48:26.589Z,10.35
2023-03-22T01:51:04.180Z,10.32
2023-03-22T01:53:42.126Z,10.30
2023-03-22T01:56:13.634Z,10.26
2023-03-22T01:58:43.388Z,10.22
2023-03-22T02:01:13.914Z,10.18
2023-03-22T02:03:56.600Z,10.14
2023-03-22T02:06:26.175Z,10.10
2023-03-22T02:09:02.332Z,10.07
2023-03-22T02:11:35.577Z,10.01
2023-03-22T02:14:27.440Z,9.96
2023-03-22T02:17:43.091Z,9.86
2023-03-22T02:20:47.053Z,9.84
2023-03-22T02:23:44.829Z,9.83
2023-03-22T02:26:54.608Z,9.82
2023-03-22T02:29:30.074Z,9.75
2023-03-22T02:32:23.881Z,9.74
2023-03-22T02:35:38.637Z,9.68
2023-03-22T02:38:42.488Z,9.64
2023-03-22T02:41:16.308Z,9.55
2023-03-22T02:43:54.498Z,9.51
2023-03-22T02:46:26.804Z,9.48
2023-03-22T02:49:01.418Z,9.41
2023-03-22T02:51:35.680Z,9.37
2023-03-22T02:54:08.138Z,9.37
2023-03-22T02:56:41.080Z,9.34
2023-03-22T02:59:12.641Z,9.32
2023-03-22T03:01:43.454Z,9.28
2023-03-22T03:04:15.846Z,9.24
2023-03-22T03:06:47.034Z,9.19
2023-03-22T03:09:18.127Z,9.15
2023-03-22T03:11:50.913Z,9.12
2023-03-22T03:14:24.381Z,9.11
2023-03-22T03:17:03.557Z,9.11
2023-03-22T03:19:36.588Z,9.10
2023-03-22T03:22:16.253Z,9.04
2023-03-22T03:24:50.796Z,9.01
2023-03-22T03:27:24.756Z,9.00
2023-03-22T03:29:58.140Z,8.92
2023-03-22T03:32:31.638Z,8.86
2023-03-22T03:35:05.406Z,8.81
2023-03-22T03:37:39.253Z,8.71
2023-03-22T03:40:11.413Z,8.69
2023-03-22T03:42:44.030Z,8.67
2023-03-22T03:45:13.090Z,8.64
2023-03-22T03:47:41.968Z,8.66
2023-03-22T03:50:13.682Z,8.69
2023-03-22T03:52:42.368Z,8.71
2023-03-22T03:55:11.271Z,8.72
2023-03-22T03:57:41.298Z,8.70
2023-03-22T04:00:11.094Z,8.70
2023-03-22T04:02:42.644Z,8.64
2023-03-22T04:05:20.706Z,8.61
2023-03-22T04:07:49.241Z,8.58
2023-03-22T04:10:18.282Z,8.56
2023-03-22T04:12:48.480Z,8.56
2023-03-22T04:15:19.840Z,8.53
2023-03-22T04:17:53.972Z,8.52
2023-03-22T04:20:27.391Z,8.54
2023-03-22T04:22:57.996Z,8.54
2023-03-22T04:25:30.430Z,8.53
2023-03-22T04:28:10.645Z,8.50
2023-03-22T04:30:39.750Z,8.49
2023-03-22T04:33:27.600Z,8.50
2023-03-22T04:36:16.012Z,8.46
2023-03-22T04:39:00.664Z,8.45
2023-03-22T04:41:33.067Z,8.41
2023-03-22T04:44:03.919Z,8.38
2023-03-22T04:46:36.747Z,8.37
2023-03-22T04:49:08.362Z,8.38
2023-03-22T04:51:41.342Z,8.35
2023-03-22T04:54:24.630Z,8.35
2023-03-22T04:56:53.498Z,8.36
2023-03-22T04:59:25.971Z,8.38
2023-03-22T05:01:55.278Z,8.37
2023-03-22T05:04:28.707Z,8.36
2023-03-22T05:07:04.452Z,8.40
2023-03-22T05:09:43.518Z,8.41
2023-03-22T05:12:12.268Z,8.44
2023-03-22T05:14:49.318Z,8.46
2023-03-22T05:17:22.794Z,8.40
2023-03-22T05:19:54.020Z,8.41
2023-03-22T05:22:23.031Z,8.40
2023-03-22T05:24:53.473Z,8.37
2023-03-22T05:27:31.205Z,8.34
2023-03-22T05:30:21.691Z,8.28
2023-03-22T05:33:03.104Z,8.24
2023-03-22T05:35:34.476Z,8.22
2023-03-22T05:38:04.870Z,8.17
2023-03-22T05:40:36.154Z,8.15
2023-03-22T05:43:04.906Z,8.14
2023-03-22T05:45:36.676Z,8.18
2023-03-22T05:48:17.975Z,8.14
2023-03-22T05:50:46.791Z,8.13
2023-03-22T05:53:15.812Z,8.09
2023-03-22T05:55:50.085Z,8.05
2023-03-22T05:58:19.279Z,8.07
2023-03-22T06:00:51.383Z,8.08
2023-03-22T06:03:22.681Z,8.08
2023-03-22T06:05:59.713Z,8.06
2023-03-22T06:08:44.899Z,8.02
2023-03-22T06:11:14.407Z,8.01
2023-03-22T06:13:43.109Z,7.99
2023-03-22T06:16:15.570Z,8.01
2023-03-22T06:18:45.244Z,7.99
2023-03-22T06:21:14.630Z,8.01
2023-03-22T06:23:44.451Z,7.99
2023-03-22T06:26:13.923Z,7.98
2023-03-22T06:28:43.984Z,7.98
2023-03-22T06:31:15.386Z,8.01
2023-03-22T06:33:49.605Z,8.04
2023-03-22T06:36:27.005Z,8.03
2023-03-22T06:39:16.160Z,8.05
2023-03-22T06:41:46.533Z,8.07
2023-03-22T06:44:16.061Z,8.08
2023-03-22T06:47:06.845Z,8.15
2023-03-22T06:49:58.672Z,8.14
2023-03-22T06:52:38.808Z,8.17
2023-03-22T06:55:10.377Z,8.20
2023-03-22T06:57:39.289Z,8.27
2023-03-22T07:00:10.637Z,8.30
2023-03-22T07:02:40.570Z,8.37
2023-03-22T07:05:22.480Z,8.39
2023-03-22T07:07:51.277Z,8.50
2023-03-22T07:10:20.434Z,8.54
2023-03-22T07:12:49.263Z,8.61
2023-03-22T07:15:24.204Z,8.65
2023-03-22T07:18:13.534Z,8.77
2023-03-22T07:20:42.721Z,8.86
2023-03-22T07:23:12.054Z,8.98
2023-03-22T07:25:51.548Z,9.07
2023-03-22T07:28:26.249Z,9.17
2023-03-22T07:31:01.907Z,9.27
2023-03-22T07:33:37.466Z,9.35
2023-03-22T07:36:06.766Z,9.41
2023-03-22T07:38:35.975Z,9.46
2023-03-22T07:41:08.064Z,9.52
2023-03-22T07:44:04.794Z,9.59
2023-03-22T07:46:51.747Z,9.62
2023-03-22T07:49:30.166Z,9.65
2023-03-22T07:52:18.015Z,9.69
2023-03-22T07:54:46.794Z,9.71
2023-03-22T07:57:16.027Z,9.78
2023-03-22T07:59:49.925Z,9.85
2023-03-22T08:02:19.077Z,9.90
2023-03-22T08:04:56.447Z,9.96
2023-03-22T08:07:33.295Z,10.07
2023-03-22T08:10:01.953Z,10.22
2023-03-22T08:12:32.471Z,10.25
2023-03-22T08:15:10.645Z,10.31
2023-03-22T08:17:39.432Z,10.43
2023-03-22T08:20:14.490Z,10.47
2023-03-22T08:22:51.505Z,10.57
2023-03-22T08:25:29.593Z,10.58
2023-03-22T08:28:07.222Z,10.69
2023-03-22T08:30:36.116Z,10.81
2023-03-22T08:33:06.390Z,10.97
2023-03-22T08:35:36.782Z,11.12
2023-03-22T08:38:05.552Z,11.18
2023-03-22T08:40:42.754Z,11.25
2023-03-22T08:43:11.563Z,11.36
2023-03-22T08:45:40.839Z,11.48
2023-03-22T08:48:14.054Z,11.50
2023-03-22T08:51:03.388Z,11.59
2023-03-22T08:53:44.917Z,11.67
2023-03-22T08:56:33.439Z,11.73
2023-03-22T08:59:15.485Z,11.84
2023-03-22T09:01:56.123Z,11.91
2023-03-22T09:04:25.076Z,12.02
2023-03-22T09:06:55.491Z,12.05
2023-03-22T09:09:24.250Z,12.10
2023-03-22T09:11:54.816Z,12.16
2023-03-22T09:14:23.725Z,12.29
2023-03-22T09:16:52.694Z,12.44
2023-03-22T09:19:22.452Z,12.44
2023-03-22T09:21:51.257Z,12.49
2023-03-22T09:24:32.720Z,12.56
2023-03-22T09:27:04.620Z,12.58
2023-03-22T09:29:33.739Z,12.57
2023-03-22T09:32:07.905Z,12.71
2023-03-22T09:34:38.968Z,12.71
2023-03-22T09:37:08.383Z,12.75
2023-03-22T09:39:47.254Z,12.76
2023-03-22T09:42:32.685Z,12.87
2023-03-22T09:45:07.462Z,12.91
2023-03-22T09:47:44.667Z,12.85
2023-03-22T09:50:17.373Z,12.94
2023-03-22T09:52:46.670Z,12.97
2023-03-22T09:55:22.317Z,13.06
2023-03-22T09:57:57.171Z,13.20
2023-03-22T10:00:27.542Z,13.35
2023-03-22T10:03:01.972Z,13.43
2023-03-22T10:05:36.236Z,13.50
2023-03-22T10:08:21.544Z,13.63
2023-03-22T10:10:52.793Z,13.74
2023-03-22T10:13:26.729Z,13.80
2023-03-22T10:15:59.008Z,13.85
2023-03-22T10:18:29.962Z,13.85
2023-03-22T10:21:02.758Z,13.84
2023-03-22T10:23:35.167Z,13.84
2023-03-22T10:26:07.919Z,13.84
2023-03-22T10:28:40.354Z,13.83
2023-03-22T10:31:14.616Z,13.86
2023-03-22T10:33:50.545Z,13.90
2023-03-22T10:36:22.401Z,14.04
2023-03-22T10:38:53.586Z,14.14
2023-03-22T10:41:26.132Z,14.17
2023-03-22T10:43:59.663Z,14.25
2023-03-22T10:46:30.151Z,14.26
2023-03-22T10:49:00.900Z,14.32
2023-03-22T10:51:32.215Z,14.39
2023-03-22T10:54:02.477Z,14.44
2023-03-22T10:56:32.504Z,14.47
2023-03-22T10:59:01.264Z,14.61
2023-03-22T11:01:31.844Z,14.59
2023-03-22T11:04:02.100Z,14.64
2023-03-22T11:06:32.899Z,14.78
2023-03-22T11:09:03.960Z,14.95
2023-03-22T11:11:38.805Z,14.99
2023-03-22T11:14:09.501Z,15.07
2023-03-22T11:16:45.403Z,15.22
2023-03-22T11:19:18.098Z,15.23
2023-03-22T11:21:47.043Z,15.25
2023-03-22T11:24:16.226Z,15.36
2023-03-22T11:27:03.818Z,15.39
2023-03-22T11:29:41.641Z,15.42
2023-03-22T11:32:27.212Z,15.57
2023-03-22T11:35:13.531Z,15.53
2023-03-22T11:37:43.288Z,15.54
2023-03-22T11:40:16.356Z,15.62
2023-03-22T11:42:46.738Z,15.75
2023-03-22T11:45:17.215Z,15.93
2023-03-22T11:47:46.023Z,16.35
2023-03-22T11:50:27.414Z,16.74
2023-03-22T11:52:56.849Z,17.12
2023-03-22T11:55:26.294Z,17.14
2023-03-22T11:57:58.265Z,17.15
2023-03-22T12:00:28.807Z,17.24
2023-03-22T12:03:00.710Z,17.26
2023-03-22T12:05:31.406Z,17.38
2023-03-22T12:08:05.010Z,17.63
2023-03-22T12:10:34.738Z,17.83
2023-03-22T12:13:08.334Z,18.06
2023-03-22T12:15:40.245Z,18.52
2023-03-22T12:18:12.353Z,18.59
2023-03-22T12:20:44.059Z,18.60
2023-03-22T12:23:16.719Z,18.62
2023-03-22T12:25:49.595Z,18.70
2023-03-22T12:28:23.215Z,18.58
2023-03-22T12:30:56.209Z,18.57
2023-03-22T12:33:28.133Z,18.68
2023-03-22T12:35:59.130Z,18.78
2023-03-22T12:38:34.046Z,18.71
2023-03-22T12:41:06.269Z,18.67
2023-03-22T12:43:47.059Z,18.60
2023-03-22T12:46:20.327Z,18.63
2023-03-22T12:48:51.948Z,18.69
2023-03-22T12:51:20.991Z,18.74
2023-03-22T12:53:52.214Z,18.97
2023-03-22T12:56:23.096Z,19.13
2023-03-22T12:58:55.057Z,19.20
2023-03-22T13:01:30.061Z,19.27
2023-03-22T13:03:59.480Z,19.40
2023-03-22T13:06:35.466Z,19.46
2023-03-22T13:09:16.897Z,19.78
2023-03-22T13:11:46.609Z,19.90
2023-03-22T13:14:56.137Z,20.22
2023-03-22T13:17:43.470Z,20.24
2023-03-22T13:20:31.250Z,20.61
2023-03-22T13:23:02.819Z,20.91
2023-03-22T13:25:35.070Z,21.10
2023-03-22T13:28:06.615Z,21.12
2023-03-22T13:30:47.679Z,21.13
2023-03-22T13:33:21.488Z,20.92
2023-03-22T13:35:53.862Z,20.95
2023-03-22T13:38:24.717Z,21.05
2023-03-22T13:41:01.757Z,21.17
2023-03-22T13:43:33.521Z,21.21
2023-03-22T13:46:29.982Z,21.19
2023-03-22T13:49:41.921Z,21.24
2023-03-22T13:52:20.878Z,21.37
2023-03-22T13:54:52.289Z,21.51
2023-03-22T13:57:47.769Z,21.34
2023-03-22T14:00:48.154Z,21.62
2023-03-22T14:03:27.326Z,22.07
2023-03-22T14:06:07.448Z,22.35
2023-03-22T14:08:36.544Z,22.58
2023-03-22T14:11:14.761Z,22.67
2023-03-22T14:13:47.183Z,22.85
2023-03-22T14:16:19.507Z,22.93
2023-03-22T14:18:51.237Z,22.87
2023-03-22T14:21:22.842Z,22.78
